sensor_id;sensor_type;location;lat;lon;timestamp;P1;durP1;ratioP1;P2;durP2;ratioP2
45007;SDS011;30743;52.008;5.644;2023-05-18T00:00:22;8.05;;;2.40;;
45007;SDS011;30743;52.008;5.644;2023-05-18T00:02:47;3.90;;;1.60;;
45007;SDS011;30743;52.008;5.644;2023-05-18T00:05:14;5.35;;;1.90;;
45007;SDS011;30743;52.008;5.644;2023-05-18T00:07:42;6.63;;;1.80;;
45007;SDS011;30743;52.008;5.644;2023-05-18T00:10:08;4.05;;;1.52;;
45007;SDS011;30743;52.008;5.644;2023-05-18T00:12:34;7.47;;;1.50;;
45007;SDS011;30743;52.008;5.644;2023-05-18T00:14:59;6.65;;;1.75;;
45007;SDS011;30743;52.008;5.644;2023-05-18T00:17:25;6.70;;;1.88;;
45007;SDS011;30743;52.008;5.644;2023-05-18T00:19:51;7.75;;;1.63;;
45007;SDS011;30743;52.008;5.644;2023-05-18T00:22:17;4.55;;;1.70;;
45007;SDS011;30743;52.008;5.644;2023-05-18T00:24:44;4.95;;;1.60;;
45007;SDS011;30743;52.008;5.644;2023-05-18T00:27:10;6.03;;;1.50;;
45007;SDS011;30743;52.008;5.644;2023-05-18T00:29:36;9.30;;;1.83;;
45007;SDS011;30743;52.008;5.644;2023-05-18T00:32:02;8.02;;;1.85;;
45007;SDS011;30743;52.008;5.644;2023-05-18T00:34:27;4.75;;;1.88;;
45007;SDS011;30743;52.008;5.644;2023-05-18T00:36:53;5.75;;;1.58;;
45007;SDS011;30743;52.008;5.644;2023-05-18T00:39:18;5.25;;;1.55;;
45007;SDS011;30743;52.008;5.644;2023-05-18T00:41:44;7.68;;;2.75;;
45007;SDS011;30743;52.008;5.644;2023-05-18T00:44:10;7.18;;;2.10;;
45007;SDS011;30743;52.008;5.644;2023-05-18T00:46:36;6.63;;;1.90;;
45007;SDS011;30743;52.008;5.644;2023-05-18T00:49:01;5.07;;;1.45;;
45007;SDS011;30743;52.008;5.644;2023-05-18T00:51:27;8.50;;;2.13;;
45007;SDS011;30743;52.008;5.644;2023-05-18T00:53:54;5.15;;;1.73;;
45007;SDS011;30743;52.008;5.644;2023-05-18T00:56:21;8.98;;;1.70;;
45007;SDS011;30743;52.008;5.644;2023-05-18T00:58:47;7.13;;;1.67;;
45007;SDS011;30743;52.008;5.644;2023-05-18T01:01:15;5.32;;;1.90;;
45007;SDS011;30743;52.008;5.644;2023-05-18T01:03:43;4.55;;;1.92;;
45007;SDS011;30743;52.008;5.644;2023-05-18T01:06:08;14.15;;;2.03;;
45007;SDS011;30743;52.008;5.644;2023-05-18T01:08:36;6.53;;;2.05;;
45007;SDS011;30743;52.008;5.644;2023-05-18T01:13:46;5.60;;;2.33;;
45007;SDS011;30743;52.008;5.644;2023-05-18T01:16:21;3.85;;;1.75;;
45007;SDS011;30743;52.008;5.644;2023-05-18T01:19:19;6.00;;;1.88;;
45007;SDS011;30743;52.008;5.644;2023-05-18T01:22:12;6.78;;;1.65;;
45007;SDS011;30743;52.008;5.644;2023-05-18T01:24:41;6.97;;;1.90;;
45007;SDS011;30743;52.008;5.644;2023-05-18T01:27:12;4.57;;;1.80;;
45007;SDS011;30743;52.008;5.644;2023-05-18T01:29:41;5.75;;;1.60;;
45007;SDS011;30743;52.008;5.644;2023-05-18T01:32:09;4.07;;;2.00;;
45007;SDS011;30743;52.008;5.644;2023-05-18T01:34:43;4.13;;;1.63;;
45007;SDS011;30743;52.008;5.644;2023-05-18T01:37:08;2.78;;;1.60;;
45007;SDS011;30743;52.008;5.644;2023-05-18T01:39:34;5.32;;;2.03;;
45007;SDS011;30743;52.008;5.644;2023-05-18T01:42:00;6.00;;;2.20;;
45007;SDS011;30743;52.008;5.644;2023-05-18T01:44:30;4.50;;;1.85;;
45007;SDS011;30743;52.008;5.644;2023-05-18T01:47:11;8.20;;;2.53;;
45007;SDS011;30743;52.008;5.644;2023-05-18T01:52:20;4.32;;;1.92;;
45007;SDS011;30743;52.008;5.644;2023-05-18T01:54:54;5.90;;;2.22;;
45007;SDS011;30743;52.008;5.644;2023-05-18T01:57:23;4.40;;;2.42;;
45007;SDS011;30743;52.008;5.644;2023-05-18T01:59:53;8.20;;;2.65;;
45007;SDS011;30743;52.008;5.644;2023-05-18T02:02:19;4.55;;;2.47;;
45007;SDS011;30743;52.008;5.644;2023-05-18T02:04:45;8.27;;;3.05;;
45007;SDS011;30743;52.008;5.644;2023-05-18T02:07:10;7.65;;;4.47;;
45007;SDS011;30743;52.008;5.644;2023-05-18T02:09:36;8.00;;;5.30;;
45007;SDS011;30743;52.008;5.644;2023-05-18T02:12:02;13.20;;;6.40;;
45007;SDS011;30743;52.008;5.644;2023-05-18T02:14:27;11.30;;;5.88;;
45007;SDS011;30743;52.008;5.644;2023-05-18T02:16:53;11.18;;;5.25;;
45007;SDS011;30743;52.008;5.644;2023-05-18T02:19:19;11.27;;;5.45;;
45007;SDS011;30743;52.008;5.644;2023-05-18T02:21:45;11.32;;;5.82;;
45007;SDS011;30743;52.008;5.644;2023-05-18T02:24:10;9.05;;;5.90;;
45007;SDS011;30743;52.008;5.644;2023-05-18T02:26:36;14.57;;;5.97;;
45007;SDS011;30743;52.008;5.644;2023-05-18T02:29:03;9.32;;;5.80;;
45007;SDS011;30743;52.008;5.644;2023-05-18T02:31:30;8.95;;;4.80;;
45007;SDS011;30743;52.008;5.644;2023-05-18T02:33:56;10.07;;;4.72;;
45007;SDS011;30743;52.008;5.644;2023-05-18T02:36:22;7.47;;;5.07;;
45007;SDS011;30743;52.008;5.644;2023-05-18T02:38:47;7.32;;;3.53;;
45007;SDS011;30743;52.008;5.644;2023-05-18T02:41:13;5.60;;;2.72;;
45007;SDS011;30743;52.008;5.644;2023-05-18T02:43:39;7.28;;;3.30;;
45007;SDS011;30743;52.008;5.644;2023-05-18T02:46:05;6.30;;;3.25;;
45007;SDS011;30743;52.008;5.644;2023-05-18T02:48:30;4.88;;;2.80;;
45007;SDS011;30743;52.008;5.644;2023-05-18T02:50:56;7.80;;;3.78;;
45007;SDS011;30743;52.008;5.644;2023-05-18T02:53:22;10.27;;;3.97;;
45007;SDS011;30743;52.008;5.644;2023-05-18T02:55:48;9.10;;;3.80;;
45007;SDS011;30743;52.008;5.644;2023-05-18T03:00:44;6.68;;;4.30;;
45007;SDS011;30743;52.008;5.644;2023-05-18T03:03:13;10.35;;;4.47;;
45007;SDS011;30743;52.008;5.644;2023-05-18T03:05:39;10.88;;;4.75;;
45007;SDS011;30743;52.008;5.644;2023-05-18T03:08:05;8.52;;;4.82;;
45007;SDS011;30743;52.008;5.644;2023-05-18T03:10:30;9.18;;;4.97;;
45007;SDS011;30743;52.008;5.644;2023-05-18T03:12:56;7.22;;;5.05;;
45007;SDS011;30743;52.008;5.644;2023-05-18T03:15:21;8.52;;;5.03;;
45007;SDS011;30743;52.008;5.644;2023-05-18T03:17:47;6.75;;;4.47;;
45007;SDS011;30743;52.008;5.644;2023-05-18T03:20:13;15.35;;;5.70;;
45007;SDS011;30743;52.008;5.644;2023-05-18T03:22:39;9.85;;;6.00;;
45007;SDS011;30743;52.008;5.644;2023-05-18T03:25:05;10.02;;;6.13;;
45007;SDS011;30743;52.008;5.644;2023-05-18T03:27:31;10.88;;;6.28;;
45007;SDS011;30743;52.008;5.644;2023-05-18T03:29:57;8.13;;;5.35;;
45007;SDS011;30743;52.008;5.644;2023-05-18T03:32:23;13.18;;;6.15;;
45007;SDS011;30743;52.008;5.644;2023-05-18T03:34:52;10.00;;;6.28;;
45007;SDS011;30743;52.008;5.644;2023-05-18T03:39:45;7.07;;;5.13;;
45007;SDS011;30743;52.008;5.644;2023-05-18T03:42:10;10.10;;;4.60;;
45007;SDS011;30743;52.008;5.644;2023-05-18T03:44:36;8.80;;;4.72;;
45007;SDS011;30743;52.008;5.644;2023-05-18T03:47:01;9.85;;;4.80;;
45007;SDS011;30743;52.008;5.644;2023-05-18T03:49:27;10.45;;;5.68;;
45007;SDS011;30743;52.008;5.644;2023-05-18T03:51:54;10.07;;;5.10;;
45007;SDS011;30743;52.008;5.644;2023-05-18T03:54:20;12.10;;;5.10;;
45007;SDS011;30743;52.008;5.644;2023-05-18T03:56:46;9.00;;;5.32;;
45007;SDS011;30743;52.008;5.644;2023-05-18T03:59:12;10.63;;;6.13;;
45007;SDS011;30743;52.008;5.644;2023-05-18T04:01:38;10.27;;;6.20;;
45007;SDS011;30743;52.008;5.644;2023-05-18T04:04:06;12.00;;;6.93;;
45007;SDS011;30743;52.008;5.644;2023-05-18T04:06:32;10.65;;;5.47;;
45007;SDS011;30743;52.008;5.644;2023-05-18T04:08:59;6.72;;;4.05;;
45007;SDS011;30743;52.008;5.644;2023-05-18T04:11:28;11.27;;;4.18;;
45007;SDS011;30743;52.008;5.644;2023-05-18T04:13:54;8.45;;;3.15;;
45007;SDS011;30743;52.008;5.644;2023-05-18T04:16:22;9.90;;;3.40;;
45007;SDS011;30743;52.008;5.644;2023-05-18T04:18:48;10.07;;;2.90;;
45007;SDS011;30743;52.008;5.644;2023-05-18T04:21:13;7.18;;;2.72;;
45007;SDS011;30743;52.008;5.644;2023-05-18T04:23:40;5.68;;;2.38;;
45007;SDS011;30743;52.008;5.644;2023-05-18T04:26:05;9.20;;;3.30;;
45007;SDS011;30743;52.008;5.644;2023-05-18T04:28:32;8.75;;;2.80;;
45007;SDS011;30743;52.008;5.644;2023-05-18T04:30:58;6.80;;;2.55;;
45007;SDS011;30743;52.008;5.644;2023-05-18T04:33:25;4.22;;;2.25;;
45007;SDS011;30743;52.008;5.644;2023-05-18T04:35:52;3.55;;;2.15;;
45007;SDS011;30743;52.008;5.644;2023-05-18T04:38:19;7.93;;;2.80;;
45007;SDS011;30743;52.008;5.644;2023-05-18T04:40:47;5.97;;;2.63;;
45007;SDS011;30743;52.008;5.644;2023-05-18T04:43:14;5.65;;;2.50;;
45007;SDS011;30743;52.008;5.644;2023-05-18T04:45:44;5.82;;;2.47;;
45007;SDS011;30743;52.008;5.644;2023-05-18T04:48:11;9.93;;;2.65;;
45007;SDS011;30743;52.008;5.644;2023-05-18T04:50:38;6.32;;;2.65;;
45007;SDS011;30743;52.008;5.644;2023-05-18T04:53:04;6.38;;;2.72;;
45007;SDS011;30743;52.008;5.644;2023-05-18T04:55:31;5.57;;;2.75;;
45007;SDS011;30743;52.008;5.644;2023-05-18T04:57:57;5.28;;;2.20;;
45007;SDS011;30743;52.008;5.644;2023-05-18T05:00:24;7.50;;;2.85;;
45007;SDS011;30743;52.008;5.644;2023-05-18T05:02:52;7.57;;;2.70;;
45007;SDS011;30743;52.008;5.644;2023-05-18T05:05:17;5.18;;;2.20;;
45007;SDS011;30743;52.008;5.644;2023-05-18T05:07:43;4.95;;;2.30;;
45007;SDS011;30743;52.008;5.644;2023-05-18T05:10:09;7.00;;;2.30;;
45007;SDS011;30743;52.008;5.644;2023-05-18T05:12:36;5.63;;;2.10;;
45007;SDS011;30743;52.008;5.644;2023-05-18T05:15:01;7.43;;;2.55;;
45007;SDS011;30743;52.008;5.644;2023-05-18T05:17:27;6.00;;;2.60;;
45007;SDS011;30743;52.008;5.644;2023-05-18T05:19:53;8.68;;;1.80;;
45007;SDS011;30743;52.008;5.644;2023-05-18T05:22:18;4.60;;;1.98;;
45007;SDS011;30743;52.008;5.644;2023-05-18T05:24:44;9.05;;;2.78;;
45007;SDS011;30743;52.008;5.644;2023-05-18T05:27:10;6.28;;;2.13;;
45007;SDS011;30743;52.008;5.644;2023-05-18T05:29:35;5.78;;;2.40;;
45007;SDS011;30743;52.008;5.644;2023-05-18T05:32:01;5.95;;;1.90;;
45007;SDS011;30743;52.008;5.644;2023-05-18T05:34:27;5.28;;;1.88;;
45007;SDS011;30743;52.008;5.644;2023-05-18T05:36:52;9.02;;;2.50;;
45007;SDS011;30743;52.008;5.644;2023-05-18T05:39:18;8.90;;;2.10;;
45007;SDS011;30743;52.008;5.644;2023-05-18T05:41:43;6.15;;;2.17;;
45007;SDS011;30743;52.008;5.644;2023-05-18T05:44:09;5.80;;;2.03;;
45007;SDS011;30743;52.008;5.644;2023-05-18T05:46:34;4.00;;;2.08;;
45007;SDS011;30743;52.008;5.644;2023-05-18T05:49:00;8.13;;;2.35;;
45007;SDS011;30743;52.008;5.644;2023-05-18T05:51:26;4.55;;;1.67;;
45007;SDS011;30743;52.008;5.644;2023-05-18T05:53:51;3.85;;;1.73;;
45007;SDS011;30743;52.008;5.644;2023-05-18T05:56:17;8.95;;;1.95;;
45007;SDS011;30743;52.008;5.644;2023-05-18T05:58:42;7.10;;;2.00;;
45007;SDS011;30743;52.008;5.644;2023-05-18T06:01:08;6.57;;;1.63;;
45007;SDS011;30743;52.008;5.644;2023-05-18T06:03:34;5.22;;;1.70;;
45007;SDS011;30743;52.008;5.644;2023-05-18T06:06:00;8.35;;;2.22;;
45007;SDS011;30743;52.008;5.644;2023-05-18T06:08:25;4.95;;;1.50;;
45007;SDS011;30743;52.008;5.644;2023-05-18T06:10:51;4.38;;;1.83;;
45007;SDS011;30743;52.008;5.644;2023-05-18T06:13:18;5.47;;;1.73;;
45007;SDS011;30743;52.008;5.644;2023-05-18T06:15:43;5.85;;;1.60;;
45007;SDS011;30743;52.008;5.644;2023-05-18T06:18:09;5.88;;;1.30;;
45007;SDS011;30743;52.008;5.644;2023-05-18T06:20:34;4.78;;;1.88;;
45007;SDS011;30743;52.008;5.644;2023-05-18T06:23:00;6.25;;;1.60;;
45007;SDS011;30743;52.008;5.644;2023-05-18T06:25:25;7.63;;;1.98;;
45007;SDS011;30743;52.008;5.644;2023-05-18T06:27:51;8.00;;;1.67;;
45007;SDS011;30743;52.008;5.644;2023-05-18T06:30:16;3.80;;;1.25;;
45007;SDS011;30743;52.008;5.644;2023-05-18T06:32:42;13.60;;;1.65;;
45007;SDS011;30743;52.008;5.644;2023-05-18T06:35:08;6.25;;;1.60;;
45007;SDS011;30743;52.008;5.644;2023-05-18T06:37:33;4.80;;;1.05;;
45007;SDS011;30743;52.008;5.644;2023-05-18T06:39:59;6.57;;;1.85;;
45007;SDS011;30743;52.008;5.644;2023-05-18T06:42:25;2.75;;;1.20;;
45007;SDS011;30743;52.008;5.644;2023-05-18T06:44:50;6.05;;;1.33;;
45007;SDS011;30743;52.008;5.644;2023-05-18T06:47:16;5.85;;;1.70;;
45007;SDS011;30743;52.008;5.644;2023-05-18T06:49:42;4.80;;;1.13;;
45007;SDS011;30743;52.008;5.644;2023-05-18T06:52:07;4.45;;;1.40;;
45007;SDS011;30743;52.008;5.644;2023-05-18T06:54:34;5.53;;;1.50;;
45007;SDS011;30743;52.008;5.644;2023-05-18T06:57:00;3.10;;;1.05;;
45007;SDS011;30743;52.008;5.644;2023-05-18T06:59:25;6.03;;;1.30;;
45007;SDS011;30743;52.008;5.644;2023-05-18T07:01:52;6.68;;;1.38;;
45007;SDS011;30743;52.008;5.644;2023-05-18T07:04:18;7.22;;;1.48;;
45007;SDS011;30743;52.008;5.644;2023-05-18T07:06:43;9.00;;;1.33;;
45007;SDS011;30743;52.008;5.644;2023-05-18T07:09:10;6.72;;;1.52;;
45007;SDS011;30743;52.008;5.644;2023-05-18T07:11:36;4.80;;;1.50;;
45007;SDS011;30743;52.008;5.644;2023-05-18T07:14:01;7.07;;;2.10;;
45007;SDS011;30743;52.008;5.644;2023-05-18T07:16:27;5.82;;;1.52;;
45007;SDS011;30743;52.008;5.644;2023-05-18T07:18:53;6.65;;;1.20;;
45007;SDS011;30743;52.008;5.644;2023-05-18T07:21:18;7.03;;;1.58;;
45007;SDS011;30743;52.008;5.644;2023-05-18T07:23:44;6.75;;;1.58;;
45007;SDS011;30743;52.008;5.644;2023-05-18T07:26:10;8.27;;;1.70;;
45007;SDS011;30743;52.008;5.644;2023-05-18T07:28:36;6.68;;;1.25;;
45007;SDS011;30743;52.008;5.644;2023-05-18T07:31:02;6.55;;;1.73;;
45007;SDS011;30743;52.008;5.644;2023-05-18T07:33:28;6.50;;;1.38;;
45007;SDS011;30743;52.008;5.644;2023-05-18T07:35:54;5.78;;;1.90;;
45007;SDS011;30743;52.008;5.644;2023-05-18T07:38:20;6.18;;;1.40;;
45007;SDS011;30743;52.008;5.644;2023-05-18T07:40:45;7.53;;;1.35;;
45007;SDS011;30743;52.008;5.644;2023-05-18T07:43:11;3.47;;;1.17;;
45007;SDS011;30743;52.008;5.644;2023-05-18T07:45:36;6.70;;;1.73;;
45007;SDS011;30743;52.008;5.644;2023-05-18T07:48:02;5.95;;;1.88;;
45007;SDS011;30743;52.008;5.644;2023-05-18T07:50:28;6.57;;;1.25;;
45007;SDS011;30743;52.008;5.644;2023-05-18T07:52:54;2.63;;;1.13;;
45007;SDS011;30743;52.008;5.644;2023-05-18T07:55:20;7.07;;;1.60;;
45007;SDS011;30743;52.008;5.644;2023-05-18T07:57:45;4.35;;;1.33;;
45007;SDS011;30743;52.008;5.644;2023-05-18T08:00:11;3.92;;;1.42;;
45007;SDS011;30743;52.008;5.644;2023-05-18T08:02:37;6.53;;;1.30;;
45007;SDS011;30743;52.008;5.644;2023-05-18T08:05:03;6.22;;;1.30;;
45007;SDS011;30743;52.008;5.644;2023-05-18T08:07:30;7.10;;;1.30;;
45007;SDS011;30743;52.008;5.644;2023-05-18T08:09:56;5.65;;;1.33;;
45007;SDS011;30743;52.008;5.644;2023-05-18T08:12:22;5.85;;;1.70;;
45007;SDS011;30743;52.008;5.644;2023-05-18T08:14:48;8.30;;;1.40;;
45007;SDS011;30743;52.008;5.644;2023-05-18T08:17:14;9.73;;;2.92;;
45007;SDS011;30743;52.008;5.644;2023-05-18T08:19:40;10.90;;;2.20;;
45007;SDS011;30743;52.008;5.644;2023-05-18T08:22:05;5.45;;;1.83;;
45007;SDS011;30743;52.008;5.644;2023-05-18T08:24:31;9.85;;;1.90;;
45007;SDS011;30743;52.008;5.644;2023-05-18T08:26:57;5.85;;;2.03;;
45007;SDS011;30743;52.008;5.644;2023-05-18T08:29:23;7.05;;;1.50;;
45007;SDS011;30743;52.008;5.644;2023-05-18T08:31:49;8.32;;;1.33;;
45007;SDS011;30743;52.008;5.644;2023-05-18T08:34:15;5.18;;;1.42;;
45007;SDS011;30743;52.008;5.644;2023-05-18T08:36:41;4.40;;;1.30;;
45007;SDS011;30743;52.008;5.644;2023-05-18T08:39:09;3.08;;;1.38;;
45007;SDS011;30743;52.008;5.644;2023-05-18T08:41:37;7.65;;;1.42;;
45007;SDS011;30743;52.008;5.644;2023-05-18T08:44:20;5.32;;;1.60;;
45007;SDS011;30743;52.008;5.644;2023-05-18T08:46:50;6.70;;;1.45;;
45007;SDS011;30743;52.008;5.644;2023-05-18T08:49:17;3.80;;;1.20;;
45007;SDS011;30743;52.008;5.644;2023-05-18T08:54:19;6.32;;;1.40;;
45007;SDS011;30743;52.008;5.644;2023-05-18T08:56:46;6.35;;;1.42;;
45007;SDS011;30743;52.008;5.644;2023-05-18T08:59:13;4.13;;;1.50;;
45007;SDS011;30743;52.008;5.644;2023-05-18T09:01:42;4.43;;;1.50;;
45007;SDS011;30743;52.008;5.644;2023-05-18T09:04:08;4.90;;;1.10;;
45007;SDS011;30743;52.008;5.644;2023-05-18T09:06:34;7.40;;;1.70;;
45007;SDS011;30743;52.008;5.644;2023-05-18T09:09:00;4.43;;;1.52;;
45007;SDS011;30743;52.008;5.644;2023-05-18T09:11:31;4.68;;;1.20;;
45007;SDS011;30743;52.008;5.644;2023-05-18T09:13:58;4.68;;;1.40;;
45007;SDS011;30743;52.008;5.644;2023-05-18T09:16:24;4.47;;;1.50;;
45007;SDS011;30743;52.008;5.644;2023-05-18T09:18:50;4.68;;;1.90;;
45007;SDS011;30743;52.008;5.644;2023-05-18T09:21:16;8.52;;;1.73;;
45007;SDS011;30743;52.008;5.644;2023-05-18T09:23:42;6.68;;;1.55;;
45007;SDS011;30743;52.008;5.644;2023-05-18T09:26:08;3.85;;;1.25;;
45007;SDS011;30743;52.008;5.644;2023-05-18T09:28:36;3.65;;;1.42;;
45007;SDS011;30743;52.008;5.644;2023-05-18T09:31:04;5.60;;;1.60;;
45007;SDS011;30743;52.008;5.644;2023-05-18T09:33:35;4.85;;;1.55;;
45007;SDS011;30743;52.008;5.644;2023-05-18T09:36:05;4.43;;;1.60;;
45007;SDS011;30743;52.008;5.644;2023-05-18T09:38:35;6.07;;;1.90;;
45007;SDS011;30743;52.008;5.644;2023-05-18T09:41:02;4.72;;;1.27;;
45007;SDS011;30743;52.008;5.644;2023-05-18T09:43:28;3.28;;;1.40;;
45007;SDS011;30743;52.008;5.644;2023-05-18T09:45:53;4.00;;;1.65;;
45007;SDS011;30743;52.008;5.644;2023-05-18T09:48:19;6.05;;;1.52;;
45007;SDS011;30743;52.008;5.644;2023-05-18T09:50:45;5.78;;;1.48;;
45007;SDS011;30743;52.008;5.644;2023-05-18T09:53:11;5.43;;;1.80;;
45007;SDS011;30743;52.008;5.644;2023-05-18T09:55:45;4.95;;;1.70;;
45007;SDS011;30743;52.008;5.644;2023-05-18T09:58:11;4.10;;;1.40;;
45007;SDS011;30743;52.008;5.644;2023-05-18T10:00:40;6.57;;;1.60;;
45007;SDS011;30743;52.008;5.644;2023-05-18T10:03:19;5.28;;;1.83;;
45007;SDS011;30743;52.008;5.644;2023-05-18T10:05:47;4.43;;;1.73;;
45007;SDS011;30743;52.008;5.644;2023-05-18T10:08:13;3.72;;;1.30;;
45007;SDS011;30743;52.008;5.644;2023-05-18T10:10:41;6.40;;;2.05;;
45007;SDS011;30743;52.008;5.644;2023-05-18T10:13:08;4.70;;;1.80;;
45007;SDS011;30743;52.008;5.644;2023-05-18T10:15:46;9.15;;;3.15;;
45007;SDS011;30743;52.008;5.644;2023-05-18T10:18:12;5.57;;;1.52;;
45007;SDS011;30743;52.008;5.644;2023-05-18T10:20:40;6.05;;;1.65;;
45007;SDS011;30743;52.008;5.644;2023-05-18T10:23:07;5.32;;;1.50;;
45007;SDS011;30743;52.008;5.644;2023-05-18T10:25:35;5.82;;;1.88;;
45007;SDS011;30743;52.008;5.644;2023-05-18T10:28:03;4.22;;;1.77;;
45007;SDS011;30743;52.008;5.644;2023-05-18T10:30:31;4.45;;;1.55;;
45007;SDS011;30743;52.008;5.644;2023-05-18T10:32:58;6.50;;;1.90;;
45007;SDS011;30743;52.008;5.644;2023-05-18T10:35:25;7.57;;;1.85;;
45007;SDS011;30743;52.008;5.644;2023-05-18T10:37:52;8.00;;;1.92;;
45007;SDS011;30743;52.008;5.644;2023-05-18T10:40:21;8.75;;;2.53;;
45007;SDS011;30743;52.008;5.644;2023-05-18T10:42:47;8.27;;;1.60;;
45007;SDS011;30743;52.008;5.644;2023-05-18T10:45:15;5.97;;;1.60;;
45007;SDS011;30743;52.008;5.644;2023-05-18T10:47:42;5.40;;;1.58;;
45007;SDS011;30743;52.008;5.644;2023-05-18T10:50:08;6.03;;;1.58;;
45007;SDS011;30743;52.008;5.644;2023-05-18T10:52:37;5.47;;;2.08;;
45007;SDS011;30743;52.008;5.644;2023-05-18T10:55:05;4.38;;;1.77;;
45007;SDS011;30743;52.008;5.644;2023-05-18T10:57:54;5.95;;;1.80;;
45007;SDS011;30743;52.008;5.644;2023-05-18T11:00:20;6.53;;;1.80;;
45007;SDS011;30743;52.008;5.644;2023-05-18T11:02:46;6.00;;;1.48;;
45007;SDS011;30743;52.008;5.644;2023-05-18T11:05:15;8.67;;;1.97;;
45007;SDS011;30743;52.008;5.644;2023-05-18T11:07:48;3.30;;;1.80;;
45007;SDS011;30743;52.008;5.644;2023-05-18T11:10:14;3.78;;;1.90;;
45007;SDS011;30743;52.008;5.644;2023-05-18T11:12:39;4.65;;;2.05;;
45007;SDS011;30743;52.008;5.644;2023-05-18T11:15:05;5.32;;;1.42;;
45007;SDS011;30743;52.008;5.644;2023-05-18T11:17:32;4.10;;;1.40;;
45007;SDS011;30743;52.008;5.644;2023-05-18T11:23:05;3.38;;;1.40;;
45007;SDS011;30743;52.008;5.644;2023-05-18T11:27:53;4.10;;;1.40;;
45007;SDS011;30743;52.008;5.644;2023-05-18T11:30:26;6.35;;;1.75;;
45007;SDS011;30743;52.008;5.644;2023-05-18T11:32:54;8.98;;;1.55;;
45007;SDS011;30743;52.008;5.644;2023-05-18T11:35:53;4.68;;;1.60;;
45007;SDS011;30743;52.008;5.644;2023-05-18T11:38:19;5.18;;;1.40;;
45007;SDS011;30743;52.008;5.644;2023-05-18T11:40:48;4.78;;;1.73;;
45007;SDS011;30743;52.008;5.644;2023-05-18T11:43:24;4.65;;;1.50;;
45007;SDS011;30743;52.008;5.644;2023-05-18T11:45:56;6.75;;;1.73;;
45007;SDS011;30743;52.008;5.644;2023-05-18T11:48:23;3.53;;;1.30;;
45007;SDS011;30743;52.008;5.644;2023-05-18T11:50:53;11.85;;;2.00;;
45007;SDS011;30743;52.008;5.644;2023-05-18T11:53:22;4.63;;;1.55;;
45007;SDS011;30743;52.008;5.644;2023-05-18T11:55:50;6.00;;;2.03;;
45007;SDS011;30743;52.008;5.644;2023-05-18T11:58:18;4.03;;;1.58;;
45007;SDS011;30743;52.008;5.644;2023-05-18T12:00:44;6.25;;;2.00;;
45007;SDS011;30743;52.008;5.644;2023-05-18T12:03:12;4.75;;;1.55;;
45007;SDS011;30743;52.008;5.644;2023-05-18T12:05:39;4.95;;;1.90;;
45007;SDS011;30743;52.008;5.644;2023-05-18T12:08:15;5.40;;;1.58;;
45007;SDS011;30743;52.008;5.644;2023-05-18T12:10:45;5.45;;;1.80;;
45007;SDS011;30743;52.008;5.644;2023-05-18T12:13:13;7.28;;;2.55;;
45007;SDS011;30743;52.008;5.644;2023-05-18T12:15:40;5.55;;;1.95;;
45007;SDS011;30743;52.008;5.644;2023-05-18T12:18:06;5.32;;;1.60;;
45007;SDS011;30743;52.008;5.644;2023-05-18T12:20:32;4.53;;;2.00;;
45007;SDS011;30743;52.008;5.644;2023-05-18T12:22:59;3.10;;;1.70;;
45007;SDS011;30743;52.008;5.644;2023-05-18T12:25:25;7.18;;;1.95;;
45007;SDS011;30743;52.008;5.644;2023-05-18T12:27:52;4.32;;;1.30;;
45007;SDS011;30743;52.008;5.644;2023-05-18T12:30:18;5.65;;;1.95;;
45007;SDS011;30743;52.008;5.644;2023-05-18T12:32:52;4.90;;;1.52;;
45007;SDS011;30743;52.008;5.644;2023-05-18T12:35:22;6.45;;;1.80;;
45007;SDS011;30743;52.008;5.644;2023-05-18T12:37:49;4.70;;;1.45;;
45007;SDS011;30743;52.008;5.644;2023-05-18T12:40:16;3.63;;;1.63;;
45007;SDS011;30743;52.008;5.644;2023-05-18T12:43:17;5.05;;;1.90;;
45007;SDS011;30743;52.008;5.644;2023-05-18T12:45:35;4.38;;;1.70;;
45007;SDS011;30743;52.008;5.644;2023-05-18T12:48:05;6.88;;;1.80;;
45007;SDS011;30743;52.008;5.644;2023-05-18T12:50:35;6.32;;;2.22;;
45007;SDS011;30743;52.008;5.644;2023-05-18T12:53:02;5.10;;;1.30;;
45007;SDS011;30743;52.008;5.644;2023-05-18T12:55:28;4.70;;;1.40;;
45007;SDS011;30743;52.008;5.644;2023-05-18T12:58:02;5.20;;;1.77;;
45007;SDS011;30743;52.008;5.644;2023-05-18T13:00:41;4.32;;;1.55;;
45007;SDS011;30743;52.008;5.644;2023-05-18T13:03:08;5.22;;;1.60;;
45007;SDS011;30743;52.008;5.644;2023-05-18T13:05:36;7.72;;;2.30;;
45007;SDS011;30743;52.008;5.644;2023-05-18T13:08:02;3.50;;;1.48;;
45007;SDS011;30743;52.008;5.644;2023-05-18T13:10:28;5.43;;;1.50;;
45007;SDS011;30743;52.008;5.644;2023-05-18T13:12:56;4.97;;;1.85;;
45007;SDS011;30743;52.008;5.644;2023-05-18T13:15:35;4.60;;;1.60;;
45007;SDS011;30743;52.008;5.644;2023-05-18T13:18:08;5.93;;;1.80;;
45007;SDS011;30743;52.008;5.644;2023-05-18T13:20:38;4.72;;;1.75;;
45007;SDS011;30743;52.008;5.644;2023-05-18T13:23:10;4.53;;;1.70;;
45007;SDS011;30743;52.008;5.644;2023-05-18T13:25:38;4.38;;;1.90;;
45007;SDS011;30743;52.008;5.644;2023-05-18T13:28:04;8.85;;;1.85;;
45007;SDS011;30743;52.008;5.644;2023-05-18T13:30:30;3.10;;;1.67;;
45007;SDS011;30743;52.008;5.644;2023-05-18T13:32:57;3.03;;;1.30;;
45007;SDS011;30743;52.008;5.644;2023-05-18T13:35:24;4.47;;;1.88;;
45007;SDS011;30743;52.008;5.644;2023-05-18T13:37:50;4.82;;;1.75;;
45007;SDS011;30743;52.008;5.644;2023-05-18T13:40:16;4.18;;;1.75;;
45007;SDS011;30743;52.008;5.644;2023-05-18T13:42:43;8.77;;;1.70;;
45007;SDS011;30743;52.008;5.644;2023-05-18T13:45:10;4.97;;;2.05;;
45007;SDS011;30743;52.008;5.644;2023-05-18T13:47:36;3.17;;;1.63;;
45007;SDS011;30743;52.008;5.644;2023-05-18T13:50:02;3.42;;;1.60;;
45007;SDS011;30743;52.008;5.644;2023-05-18T13:52:29;4.90;;;1.88;;
45007;SDS011;30743;52.008;5.644;2023-05-18T13:54:54;4.82;;;1.50;;
45007;SDS011;30743;52.008;5.644;2023-05-18T13:57:20;4.45;;;1.83;;
45007;SDS011;30743;52.008;5.644;2023-05-18T13:59:47;3.70;;;1.60;;
45007;SDS011;30743;52.008;5.644;2023-05-18T14:02:12;3.70;;;1.63;;
45007;SDS011;30743;52.008;5.644;2023-05-18T14:04:38;7.28;;;2.10;;
45007;SDS011;30743;52.008;5.644;2023-05-18T14:07:03;3.65;;;2.05;;
45007;SDS011;30743;52.008;5.644;2023-05-18T14:09:29;5.38;;;1.80;;
45007;SDS011;30743;52.008;5.644;2023-05-18T14:11:54;4.25;;;1.60;;
45007;SDS011;30743;52.008;5.644;2023-05-18T14:14:20;4.80;;;1.98;;
45007;SDS011;30743;52.008;5.644;2023-05-18T14:16:46;5.32;;;1.60;;
45007;SDS011;30743;52.008;5.644;2023-05-18T14:19:11;5.18;;;1.80;;
45007;SDS011;30743;52.008;5.644;2023-05-18T14:21:37;8.85;;;2.00;;
45007;SDS011;30743;52.008;5.644;2023-05-18T14:24:02;8.65;;;2.03;;
45007;SDS011;30743;52.008;5.644;2023-05-18T14:26:31;7.45;;;2.22;;
45007;SDS011;30743;52.008;5.644;2023-05-18T14:28:57;5.13;;;1.92;;
45007;SDS011;30743;52.008;5.644;2023-05-18T14:31:23;5.95;;;2.10;;
45007;SDS011;30743;52.008;5.644;2023-05-18T14:33:48;6.80;;;1.80;;
45007;SDS011;30743;52.008;5.644;2023-05-18T14:36:14;8.25;;;1.98;;
45007;SDS011;30743;52.008;5.644;2023-05-18T14:38:40;4.47;;;1.67;;
45007;SDS011;30743;52.008;5.644;2023-05-18T14:41:07;4.93;;;1.92;;
45007;SDS011;30743;52.008;5.644;2023-05-18T14:43:33;4.80;;;1.80;;
45007;SDS011;30743;52.008;5.644;2023-05-18T14:45:58;4.78;;;1.85;;
45007;SDS011;30743;52.008;5.644;2023-05-18T14:48:24;6.45;;;1.80;;
45007;SDS011;30743;52.008;5.644;2023-05-18T14:50:50;4.43;;;1.30;;
45007;SDS011;30743;52.008;5.644;2023-05-18T14:53:15;3.97;;;1.70;;
45007;SDS011;30743;52.008;5.644;2023-05-18T14:55:41;5.75;;;1.77;;
45007;SDS011;30743;52.008;5.644;2023-05-18T14:58:06;6.50;;;2.10;;
45007;SDS011;30743;52.008;5.644;2023-05-18T15:00:34;5.57;;;1.55;;
45007;SDS011;30743;52.008;5.644;2023-05-18T15:03:00;3.90;;;1.52;;